createdAt,value
2018-05-06T00:00:41.794Z,13.30
2018-05-06T00:03:10.205Z,13.10
2018-05-06T00:05:39.470Z,12.80
2018-05-06T00:08:07.987Z,12.80
2018-05-06T00:10:36.399Z,12.60
2018-05-06T00:13:05.580Z,12.70
2018-05-06T00:15:33.745Z,12.60
2018-05-06T00:18:02.174Z,12.60
2018-05-06T00:20:32.557Z,12.50
2018-05-06T00:23:00.982Z,12.40
2018-05-06T00:25:29.471Z,12.30
2018-05-06T00:27:57.870Z,12.20
2018-05-06T00:30:26.315Z,12.00
2018-05-06T00:32:55.540Z,11.80
2018-05-06T00:35:24.001Z,11.80
2018-05-06T00:37:52.646Z,11.70
2018-05-06T00:40:21.154Z,11.60
2018-05-06T00:42:49.334Z,11.50
2018-05-06T00:45:17.769Z,11.40
2018-05-06T00:47:46.181Z,11.30
2018-05-06T00:50:15.384Z,11.30
2018-05-06T00:52:44.619Z,11.30
2018-05-06T00:55:13.143Z,11.40
2018-05-06T00:57:41.569Z,11.40
2018-05-06T01:00:09.546Z,11.40
2018-05-06T01:02:37.950Z,11.30
2018-05-06T01:05:07.146Z,11.40
2018-05-06T01:07:35.347Z,11.30
2018-05-06T01:10:03.634Z,11.30
2018-05-06T01:12:32.914Z,11.30
2018-05-06T01:15:01.345Z,11.30
2018-05-06T01:17:30.545Z,11.30
2018-05-06T01:19:59.049Z,11.30
2018-05-06T01:22:27.447Z,11.30
2018-05-06T01:24:56.638Z,11.20
2018-05-06T01:27:25.271Z,11.20
2018-05-06T01:29:53.736Z,11.10
2018-05-06T01:32:33.577Z,11.00
2018-05-06T01:35:02.057Z,10.80
2018-05-06T01:37:30.468Z,10.70
2018-05-06T01:39:58.943Z,10.60
2018-05-06T01:42:27.373Z,10.50
2018-05-06T01:44:55.771Z,10.40
2018-05-06T01:47:24.793Z,10.20
2018-05-06T01:49:53.946Z,10.20
2018-05-06T01:52:22.353Z,10.10
2018-05-06T01:54:50.862Z,10.10
2018-05-06T01:57:19.286Z,10.10
2018-05-06T01:59:48.511Z,9.90
2018-05-06T02:02:16.929Z,9.90
2018-05-06T02:04:45.355Z,9.80
2018-05-06T02:07:14.735Z,9.80
2018-05-06T02:09:43.146Z,9.70
2018-05-06T02:12:11.546Z,9.60
2018-05-06T02:14:40.013Z,9.60
2018-05-06T02:17:08.441Z,9.50
2018-05-06T02:19:36.901Z,9.50
2018-05-06T02:22:04.637Z,9.50
2018-05-06T02:24:33.099Z,9.40
2018-05-06T02:27:01.231Z,9.40
2018-05-06T02:29:29.645Z,9.20
2018-05-06T02:31:57.847Z,9.30
2018-05-06T02:34:26.053Z,9.30
2018-05-06T02:36:54.516Z,9.30
2018-05-06T02:39:22.974Z,9.30
2018-05-06T02:41:51.386Z,9.30
2018-05-06T02:44:19.843Z,9.20
2018-05-06T02:46:49.050Z,9.40
2018-05-06T02:49:17.441Z,9.40
2018-05-06T02:51:45.855Z,9.50
2018-05-06T02:54:15.120Z,9.40
2018-05-06T02:56:43.565Z,9.40
2018-05-06T02:59:12.036Z,9.30
2018-05-06T03:01:41.049Z,9.40
2018-05-06T03:04:10.253Z,9.40
2018-05-06T03:06:38.755Z,9.40
2018-05-06T03:09:07.909Z,9.30
2018-05-06T03:11:36.314Z,9.30
2018-05-06T03:14:04.715Z,9.30
2018-05-06T03:16:32.833Z,9.40
2018-05-06T03:19:02.022Z,9.20
2018-05-06T03:21:30.450Z,9.20
2018-05-06T03:23:59.625Z,9.00
2018-05-06T03:26:28.022Z,9.00
2018-05-06T03:28:56.448Z,9.00
2018-05-06T03:31:24.920Z,9.00
2018-05-06T03:33:54.088Z,9.30
2018-05-06T03:36:22.477Z,9.20
2018-05-06T03:38:50.896Z,9.30
2018-05-06T03:41:19.391Z,9.40
2018-05-06T03:43:47.587Z,9.40
2018-05-06T03:46:15.987Z,9.60
2018-05-06T03:48:44.392Z,9.80
2018-05-06T03:51:13.598Z,10.20
2018-05-06T03:53:42.082Z,10.20
2018-05-06T03:59:42.682Z,10.70
2018-05-06T04:02:30.764Z,10.80
2018-05-06T04:04:59.046Z,10.80
2018-05-06T04:07:27.450Z,10.90
2018-05-06T04:09:56.407Z,11.10
2018-05-06T04:12:25.654Z,11.10
2018-05-06T04:14:54.145Z,11.10
2018-05-06T04:17:22.621Z,11.20
2018-05-06T04:19:51.851Z,11.10
2018-05-06T04:22:21.014Z,11.20
2018-05-06T04:24:49.418Z,11.20
2018-05-06T04:27:17.814Z,11.20
2018-05-06T04:29:46.236Z,11.30
2018-05-06T04:32:14.635Z,11.30
2018-05-06T04:34:43.035Z,11.30
2018-05-06T04:37:11.506Z,11.40
2018-05-06T04:39:40.708Z,11.40
2018-05-06T04:42:09.908Z,11.50
2018-05-06T04:44:38.385Z,11.40
2018-05-06T04:47:06.873Z,11.50
2018-05-06T04:49:35.304Z,11.60
2018-05-06T04:52:04.514Z,11.60
2018-05-06T04:54:33.747Z,11.70
2018-05-06T04:57:02.180Z,11.70
2018-05-06T04:59:30.618Z,11.80
2018-05-06T05:01:59.040Z,11.90
2018-05-06T05:04:27.494Z,12.20
2018-05-06T05:06:55.983Z,12.60
2018-05-06T05:09:24.397Z,13.00
2018-05-06T05:11:53.036Z,13.30
2018-05-06T05:14:21.662Z,13.40
2018-05-06T05:16:50.102Z,13.70
2018-05-06T05:19:18.531Z,13.80
2018-05-06T05:21:46.970Z,14.10
2018-05-06T05:24:16.153Z,14.40
2018-05-06T05:26:44.638Z,14.40
2018-05-06T05:29:13.055Z,14.60
2018-05-06T05:31:42.229Z,15.00
2018-05-06T05:34:10.675Z,14.90
2018-05-06T05:36:39.195Z,15.20
2018-05-06T05:39:07.377Z,15.30
2018-05-06T05:41:35.872Z,15.40
2018-05-06T05:44:04.284Z,15.50
2018-05-06T05:46:32.738Z,15.70
2018-05-06T05:49:01.154Z,15.90
2018-05-06T05:51:29.541Z,16.00
2018-05-06T05:53:57.606Z,16.10
2018-05-06T05:56:26.055Z,16.30
2018-05-06T05:58:54.540Z,16.60
2018-05-06T06:01:23.036Z,16.80
2018-05-06T06:03:51.581Z,17.10
2018-05-06T06:06:20.754Z,17.50
2018-05-06T06:08:49.245Z,17.50
2018-05-06T06:11:17.755Z,17.50
2018-05-06T06:13:47.629Z,17.90
2018-05-06T06:16:16.123Z,17.90
2018-05-06T06:18:44.581Z,17.90
2018-05-06T06:21:13.192Z,18.10
2018-05-06T06:23:41.406Z,18.60
2018-05-06T06:26:09.825Z,18.80
2018-05-06T06:28:38.245Z,18.70
2018-05-06T06:31:07.461Z,19.30
2018-05-06T06:33:36.442Z,19.10
2018-05-06T06:36:04.916Z,19.10
2018-05-06T06:38:33.351Z,19.60
2018-05-06T06:41:01.854Z,20.00
2018-05-06T06:43:30.371Z,20.00
2018-05-06T06:45:58.855Z,20.20
2018-05-06T06:48:27.685Z,20.00
2018-05-06T06:50:56.183Z,20.20
2018-05-06T06:53:24.646Z,20.40
2018-05-06T06:55:52.908Z,19.60
2018-05-06T06:58:21.407Z,19.10
2018-05-06T07:00:51.531Z,19.20
2018-05-06T07:03:20.893Z,19.10
2018-05-06T07:05:49.228Z,19.10
2018-05-06T07:08:17.875Z,19.60
2018-05-06T07:10:46.398Z,19.80
2018-05-06T07:13:14.907Z,19.30
2018-05-06T07:15:43.392Z,19.10
2018-05-06T07:18:11.870Z,19.40
2018-05-06T07:20:40.335Z,19.80
2018-05-06T07:23:08.964Z,20.20
2018-05-06T07:25:37.481Z,20.20
2018-05-06T07:28:05.999Z,20.20
2018-05-06T07:30:34.159Z,20.30
2018-05-06T07:33:03.258Z,20.40
2018-05-06T07:35:38.834Z,20.70
2018-05-06T07:38:07.321Z,21.20
2018-05-06T07:40:35.830Z,21.40
2018-05-06T07:43:20.365Z,21.20
2018-05-06T07:45:49.123Z,21.20
2018-05-06T07:48:17.580Z,21.50
2018-05-06T07:50:46.097Z,20.90
2018-05-06T07:53:14.687Z,21.00
2018-05-06T07:55:45.510Z,20.90
2018-05-06T07:58:16.399Z,20.90
2018-05-06T08:03:23.679Z,21.10
2018-05-06T08:05:55.131Z,20.60
2018-05-06T08:08:23.731Z,21.00
2018-05-06T08:10:52.281Z,20.70
2018-05-06T08:13:20.777Z,20.60
2018-05-06T08:16:00.032Z,20.90
2018-05-06T08:21:13.464Z,21.50
2018-05-06T08:23:46.509Z,21.70
2018-05-06T08:28:52.899Z,21.70
2018-05-06T08:31:21.434Z,22.50
2018-05-06T08:34:02.299Z,22.40
2018-05-06T08:36:37.731Z,23.30
2018-05-06T08:39:05.693Z,23.30
2018-05-06T08:41:34.299Z,23.00
2018-05-06T08:46:58.290Z,22.90
2018-05-06T08:49:27.431Z,22.80
2018-05-06T08:52:00.083Z,22.50
2018-05-06T08:54:31.683Z,22.50
2018-05-06T08:57:00.192Z,22.70
2018-05-06T09:25:35.319Z,22.00
2018-05-06T09:28:06.762Z,23.30
2018-05-06T09:30:36.030Z,23.00
2018-05-06T09:33:04.726Z,23.90
2018-05-06T09:35:33.337Z,24.40
2018-05-06T09:38:01.816Z,24.60
2018-05-06T09:40:30.377Z,24.30
2018-05-06T09:42:58.895Z,23.90
2018-05-06T09:45:43.554Z,23.90
2018-05-06T09:48:12.088Z,23.50
2018-05-06T09:50:41.702Z,24.20
2018-05-06T09:53:10.248Z,24.30
2018-05-06T09:55:42.901Z,24.40
2018-05-06T09:58:11.554Z,24.10
2018-05-06T10:00:40.085Z,24.30
2018-05-06T10:03:08.569Z,24.10
2018-05-06T10:05:37.244Z,24.30
2018-05-06T10:08:05.766Z,24.70
2018-05-06T10:10:35.051Z,24.70
2018-05-06T10:13:04.007Z,24.70
2018-05-06T10:15:33.402Z,24.60
2018-05-06T10:18:01.922Z,24.40
2018-05-06T10:20:31.197Z,24.30
2018-05-06T10:22:59.751Z,24.30
2018-05-06T10:25:28.235Z,25.10
2018-05-06T10:27:56.723Z,25.90
2018-05-06T10:30:25.250Z,26.60
2018-05-06T10:32:53.816Z,26.80
2018-05-06T10:35:22.993Z,26.30
2018-05-06T10:37:52.444Z,26.30
2018-05-06T10:40:20.869Z,26.50
2018-05-06T10:42:49.249Z,26.40
2018-05-06T10:45:17.653Z,25.60
2018-05-06T10:47:46.043Z,25.70
2018-05-06T10:50:14.426Z,26.50
2018-05-06T10:52:43.131Z,27.10
2018-05-06T10:55:11.590Z,27.50
2018-05-06T10:57:40.071Z,27.60
2018-05-06T11:00:08.269Z,28.10
2018-05-06T11:02:37.477Z,27.70
2018-05-06T11:05:06.712Z,28.00
2018-05-06T11:07:35.207Z,28.00
2018-05-06T11:10:03.390Z,28.30
2018-05-06T11:12:31.783Z,27.90
2018-05-06T11:15:00.221Z,27.80
2018-05-06T11:17:32.443Z,27.60
2018-05-06T11:20:00.865Z,27.90
2018-05-06T11:22:29.290Z,27.80
2018-05-06T11:24:57.760Z,27.80
2018-05-06T11:27:26.210Z,27.90
2018-05-06T11:29:54.878Z,27.80
2018-05-06T11:32:23.066Z,28.10
2018-05-06T11:34:51.299Z,28.30
2018-05-06T11:37:19.780Z,28.50
2018-05-06T11:39:52.587Z,29.10
2018-05-06T11:42:35.498Z,28.60
2018-05-06T11:45:04.420Z,28.70
2018-05-06T11:47:32.975Z,28.70
2018-05-06T11:50:14.008Z,28.40
2018-05-06T11:52:42.507Z,28.50
2018-05-06T11:55:11.067Z,28.70
2018-05-06T11:57:39.599Z,28.50
2018-05-06T12:00:09.474Z,28.80
2018-05-06T12:02:38.011Z,28.70
2018-05-06T12:05:10.374Z,28.70
2018-05-06T12:07:38.880Z,28.80
2018-05-06T12:10:07.401Z,29.00
2018-05-06T12:12:35.903Z,29.10
2018-05-06T12:15:05.223Z,29.20
2018-05-06T12:17:33.792Z,29.30
2018-05-06T12:20:02.281Z,29.50
2018-05-06T12:25:06.654Z,29.40
2018-05-06T12:27:35.379Z,29.20
2018-05-06T12:30:04.955Z,29.00
2018-05-06T12:32:34.412Z,29.90
2018-05-06T12:35:03.887Z,29.90
2018-05-06T12:37:33.715Z,30.00
2018-05-06T12:40:02.796Z,29.20
2018-05-06T12:42:32.567Z,29.10
2018-05-06T12:45:08.257Z,29.70
2018-05-06T12:47:36.744Z,29.20
2018-05-06T12:50:15.424Z,27.90
2018-05-06T12:52:43.964Z,27.80
2018-05-06T12:55:13.307Z,27.60
2018-05-06T12:57:42.062Z,27.20
2018-05-06T13:00:10.539Z,27.80
2018-05-06T13:02:39.475Z,27.50
2018-05-06T13:05:08.029Z,27.80
2018-05-06T13:07:36.534Z,28.40
2018-05-06T13:10:05.028Z,28.70
2018-05-06T13:12:33.458Z,29.10
2018-05-06T13:15:02.065Z,29.20
2018-05-06T13:17:35.340Z,28.30
2018-05-06T13:20:03.898Z,28.20
2018-05-06T13:25:09.089Z,27.70
2018-05-06T13:27:39.416Z,27.90
2018-05-06T13:30:11.698Z,26.80
2018-05-06T13:32:39.963Z,26.80
2018-05-06T13:35:08.263Z,26.90
2018-05-06T13:37:36.605Z,27.10
2018-05-06T13:40:07.273Z,27.20
2018-05-06T13:42:35.795Z,26.60
2018-05-06T13:45:03.602Z,26.60
2018-05-06T13:47:32.168Z,26.50
2018-05-06T13:50:00.803Z,25.40
2018-05-06T13:52:29.893Z,25.30
2018-05-06T13:54:59.162Z,26.00
2018-05-06T13:57:27.637Z,25.90
2018-05-06T13:59:57.311Z,26.30
2018-05-06T14:02:25.854Z,26.30
2018-05-06T14:04:54.348Z,26.50
2018-05-06T14:07:22.920Z,26.40
2018-05-06T14:09:52.181Z,26.00
2018-05-06T14:12:20.676Z,26.00
2018-05-06T14:14:49.170Z,26.10
2018-05-06T14:17:17.615Z,26.00
2018-05-06T14:19:46.081Z,25.80
2018-05-06T14:22:14.586Z,25.60
2018-05-06T14:24:43.112Z,25.50
2018-05-06T14:27:11.579Z,25.20
2018-05-06T14:29:43.972Z,25.30
2018-05-06T14:32:12.570Z,25.60
2018-05-06T14:34:41.075Z,25.60
2018-05-06T14:37:12.893Z,25.50
2018-05-06T14:39:41.530Z,25.40
2018-05-06T14:42:10.121Z,25.40
2018-05-06T14:44:40.016Z,25.50
2018-05-06T14:47:19.720Z,25.40
2018-05-06T14:49:51.957Z,25.30
2018-05-06T14:52:20.607Z,25.20
2018-05-06T14:54:49.075Z,25.20
2018-05-06T14:57:23.312Z,25.30
2018-05-06T14:59:51.795Z,25.30
2018-05-06T15:02:20.310Z,25.40
2018-05-06T15:04:49.430Z,25.40
2018-05-06T15:07:18.049Z,25.40
2018-05-06T15:09:56.714Z,25.40
2018-05-06T15:15:24.650Z,25.20
2018-05-06T15:17:53.897Z,25.10
2018-05-06T15:20:33.187Z,25.00
2018-05-06T15:23:01.678Z,25.00
2018-05-06T15:25:30.135Z,25.00
2018-05-06T15:27:58.586Z,25.00
2018-05-06T15:30:27.071Z,24.90
2018-05-06T15:32:55.432Z,24.90
2018-05-06T15:35:30.552Z,24.70
2018-05-06T15:38:01.011Z,24.70
2018-05-06T15:40:29.576Z,24.90
2018-05-06T15:42:58.166Z,25.00
2018-05-06T15:45:28.459Z,24.90
2018-05-06T15:47:56.933Z,24.90
2018-05-06T15:50:25.493Z,24.90
2018-05-06T15:52:53.875Z,24.80
2018-05-06T15:55:36.020Z,24.80
2018-05-06T15:58:04.774Z,25.00
2018-05-06T16:00:35.248Z,25.00
2018-05-06T16:05:57.288Z,25.10
2018-05-06T16:08:25.784Z,25.10
2018-05-06T16:10:54.297Z,25.10
2018-05-06T16:13:23.724Z,25.10
2018-05-06T16:22:16.796Z,24.70
2018-05-06T16:24:45.385Z,24.70
2018-05-06T16:27:13.850Z,24.60
2018-05-06T16:30:03.180Z,24.60
2018-05-06T16:32:31.658Z,24.60
2018-05-06T16:35:00.142Z,24.60
2018-05-06T16:37:33.997Z,24.60
2018-05-06T16:40:02.269Z,24.60
2018-05-06T16:42:30.474Z,24.60
2018-05-06T16:44:58.714Z,24.50
2018-05-06T16:47:27.173Z,24.60
2018-05-06T16:49:55.660Z,24.60
2018-05-06T16:52:24.329Z,24.60
2018-05-06T16:54:52.873Z,24.60
2018-05-06T16:57:21.370Z,24.50
2018-05-06T16:59:49.960Z,24.50
2018-05-06T17:02:30.431Z,24.40
2018-05-06T17:04:58.975Z,24.40
2018-05-06T17:07:31.578Z,24.30
2018-05-06T17:10:10.750Z,24.30
2018-05-06T17:12:39.410Z,24.30
2018-05-06T17:15:12.186Z,24.30
2018-05-06T17:17:41.451Z,24.20
2018-05-06T17:20:12.286Z,24.20
2018-05-06T17:22:40.481Z,24.20
2018-05-06T17:25:08.955Z,24.20
2018-05-06T17:27:51.797Z,24.10
2018-05-06T17:30:20.365Z,24.10
2018-05-06T17:32:48.874Z,24.10
2018-05-06T17:35:17.508Z,24.00
2018-05-06T17:40:39.336Z,24.00
2018-05-06T17:43:25.446Z,23.90
2018-05-06T17:45:53.939Z,23.90
2018-05-06T17:52:05.309Z,23.80
2018-05-06T17:57:42.485Z,23.70
2018-05-06T18:00:10.661Z,23.60
2018-05-06T18:02:39.130Z,23.50
2018-05-06T18:05:07.275Z,23.50
2018-05-06T18:07:36.780Z,23.40
2018-05-06T18:10:05.720Z,23.20
2018-05-06T18:12:34.065Z,23.20
2018-05-06T18:15:02.936Z,23.10
2018-05-06T18:17:31.464Z,23.10
2018-05-06T18:20:00.201Z,22.90
2018-05-06T18:22:29.772Z,22.90
2018-05-06T18:24:58.467Z,22.80
2018-05-06T18:27:26.956Z,22.80
2018-05-06T18:29:55.459Z,22.60
2018-05-06T18:32:24.207Z,22.50
2018-05-06T18:34:52.708Z,22.40
2018-05-06T18:37:22.858Z,22.30
2018-05-06T18:39:51.352Z,22.20
2018-05-06T18:42:20.704Z,22.10
2018-05-06T18:44:50.030Z,21.90
2018-05-06T18:47:18.518Z,21.80
2018-05-06T18:49:47.167Z,21.80
2018-05-06T18:52:17.682Z,21.70
2018-05-06T18:54:46.108Z,21.60
2018-05-06T18:57:15.276Z,21.50
2018-05-06T18:59:43.931Z,21.40
2018-05-06T19:02:12.519Z,21.20
2018-05-06T19:04:41.030Z,21.10
2018-05-06T19:07:09.525Z,20.90
2018-05-06T19:09:55.997Z,20.90
2018-05-06T19:12:24.466Z,20.80
2018-05-06T19:14:53.733Z,20.60
2018-05-06T19:17:21.979Z,20.50
2018-05-06T19:19:50.433Z,20.40
2018-05-06T19:22:18.907Z,20.30
2018-05-06T19:24:47.385Z,20.20
2018-05-06T19:27:15.904Z,20.10
2018-05-06T19:29:44.365Z,19.90
2018-05-06T19:32:13.010Z,19.80
2018-05-06T19:34:41.464Z,19.70
2018-05-06T19:37:10.056Z,19.70
2018-05-06T19:39:38.591Z,19.50
2018-05-06T19:42:07.280Z,19.40
2018-05-06T19:44:35.761Z,19.40
2018-05-06T19:47:03.906Z,19.40
2018-05-06T19:49:32.571Z,19.40
2018-05-06T19:52:01.127Z,19.30
2018-05-06T19:54:29.322Z,19.30
2018-05-06T19:56:57.790Z,19.20
2018-05-06T19:59:26.326Z,19.10
2018-05-06T20:01:54.797Z,19.00
2018-05-06T20:04:23.478Z,18.90
2018-05-06T20:09:30.615Z,18.80
2018-05-06T20:11:59.356Z,18.80
2018-05-06T20:14:32.952Z,18.70
2018-05-06T20:17:01.483Z,18.60
2018-05-06T20:19:34.593Z,18.50
2018-05-06T20:22:04.077Z,18.40
2018-05-06T20:24:32.539Z,18.30
2018-05-06T20:27:00.974Z,18.20
2018-05-06T20:29:29.499Z,18.30
2018-05-06T20:31:57.983Z,18.30
2018-05-06T20:34:26.489Z,18.30
2018-05-06T20:36:59.682Z,18.30
2018-05-06T20:39:28.093Z,18.30
2018-05-06T20:41:57.171Z,18.40
2018-05-06T20:47:12.225Z,18.30
2018-05-06T20:49:40.704Z,18.30
2018-05-06T20:52:15.616Z,18.10
2018-05-06T20:54:44.256Z,18.10
2018-05-06T20:57:12.781Z,18.00
2018-05-06T20:59:41.329Z,17.90
2018-05-06T21:02:21.593Z,17.80
2018-05-06T21:04:50.073Z,17.70
2018-05-06T21:10:11.058Z,17.10
2018-05-06T21:12:40.331Z,16.90
2018-05-06T21:15:08.862Z,16.90
2018-05-06T21:17:37.461Z,16.90
2018-05-06T21:20:06.784Z,16.70
2018-05-06T21:22:35.232Z,16.70
2018-05-06T21:27:48.330Z,16.70
2018-05-06T21:30:16.903Z,16.80
2018-05-06T21:32:45.321Z,16.80
2018-05-06T21:35:14.582Z,17.00
2018-05-06T21:37:43.049Z,17.00
2018-05-06T21:40:19.235Z,17.20
2018-05-06T21:42:47.757Z,17.10
2018-05-06T21:45:16.216Z,17.00
2018-05-06T21:47:44.642Z,16.90
2018-05-06T21:50:13.045Z,16.80
2018-05-06T21:52:41.532Z,16.70
2018-05-06T21:55:09.926Z,16.60
2018-05-06T21:57:38.105Z,16.50
2018-05-06T22:00:08.579Z,16.30
2018-05-06T22:02:40.923Z,16.20
2018-05-06T22:05:09.383Z,16.10
2018-05-06T22:07:39.243Z,15.80
2018-05-06T22:10:07.664Z,15.80
2018-05-06T22:12:36.681Z,15.70
2018-05-06T22:15:05.259Z,15.70
2018-05-06T22:17:33.905Z,15.60
2018-05-06T22:20:02.541Z,15.60
2018-05-06T22:22:31.035Z,15.50
2018-05-06T22:24:59.552Z,15.50
2018-05-06T22:27:27.639Z,15.30
2018-05-06T22:29:56.131Z,15.30
2018-05-06T22:32:24.593Z,15.50
2018-05-06T22:34:53.071Z,15.60
2018-05-06T22:37:21.742Z,15.50
2018-05-06T22:39:50.601Z,15.50
2018-05-06T22:42:19.048Z,15.40
2018-05-06T22:44:47.478Z,15.40
2018-05-06T22:47:16.122Z,15.60
2018-05-06T22:49:44.620Z,15.70
2018-05-06T22:52:13.810Z,15.90
2018-05-06T22:54:42.281Z,15.90
2018-05-06T22:57:10.469Z,16.00
2018-05-06T22:59:38.966Z,16.10
2018-05-06T23:02:07.433Z,16.10
2018-05-06T23:04:38.077Z,16.10
2018-05-06T23:07:10.243Z,16.20
2018-05-06T23:09:41.741Z,16.20
2018-05-06T23:12:10.268Z,16.20
2018-05-06T23:14:38.687Z,16.20
2018-05-06T23:17:08.855Z,16.20
2018-05-06T23:19:37.250Z,16.20
2018-05-06T23:22:05.325Z,16.20
2018-05-06T23:24:33.656Z,16.20
2018-05-06T23:27:02.711Z,16.20
2018-05-06T23:29:31.385Z,16.20
2018-05-06T23:32:00.247Z,16.20
2018-05-06T23:34:28.787Z,16.10
2018-05-06T23:36:57.211Z,16.00
2018-05-06T23:39:25.640Z,16.00
2018-05-06T23:41:54.077Z,16.00
2018-05-06T23:44:22.816Z,15.90
2018-05-06T23:46:51.290Z,15.90
2018-05-06T23:49:19.712Z,15.80
2018-05-06T23:51:48.358Z,15.80
2018-05-06T23:54:17.887Z,15.70
2018-05-06T23:56:46.358Z,15.70
2018-05-06T23:59:15.603Z,15.60
